createdAt,value
2023-04-17T00:00:55.637Z,9.83
2023-04-17T00:01:55.712Z,9.86
2023-04-17T00:02:55.870Z,9.89
2023-04-17T00:03:55.674Z,9.91
2023-04-17T00:04:55.648Z,9.91
2023-04-17T00:05:55.543Z,9.89
2023-04-17T00:06:55.534Z,9.89
2023-04-17T00:07:55.518Z,9.93
2023-04-17T00:08:55.523Z,9.95
2023-04-17T00:09:55.497Z,9.95
2023-04-17T00:11:04.581Z,9.95
2023-04-17T00:11:56.502Z,9.96
2023-04-17T00:12:55.465Z,9.98
2023-04-17T00:13:55.461Z,9.93
2023-04-17T00:14:55.444Z,9.96
2023-04-17T00:15:55.471Z,9.95
2023-04-17T00:16:55.472Z,9.93
2023-04-17T00:17:55.419Z,9.93
2023-04-17T00:18:55.417Z,9.92
2023-04-17T00:19:55.384Z,9.92
2023-04-17T00:20:55.379Z,9.92
2023-04-17T00:21:55.363Z,9.89
2023-04-17T00:22:55.351Z,9.89
2023-04-17T00:23:55.338Z,9.91
2023-04-17T00:24:55.332Z,9.93
2023-04-17T00:25:55.318Z,9.95
2023-04-17T00:26:55.334Z,9.95
2023-04-17T00:27:55.298Z,9.93
2023-04-17T00:28:55.285Z,9.92
2023-04-17T00:29:55.278Z,9.92
2023-04-17T00:30:55.264Z,9.89
2023-04-17T00:31:55.318Z,9.89
2023-04-17T00:32:55.261Z,9.86
2023-04-17T00:33:55.233Z,9.88
2023-04-17T00:34:55.883Z,9.88
2023-04-17T00:35:55.213Z,9.81
2023-04-17T00:36:55.197Z,9.81
2023-04-17T00:37:55.191Z,9.81
2023-04-17T00:38:55.176Z,9.81
2023-04-17T00:39:55.168Z,9.80
2023-04-17T00:40:55.186Z,9.78
2023-04-17T00:41:55.147Z,9.73
2023-04-17T00:42:55.156Z,9.73
2023-04-17T00:43:55.120Z,9.77
2023-04-17T00:44:55.119Z,9.74
2023-04-17T00:45:55.118Z,9.75
2023-04-17T00:46:55.087Z,9.75
2023-04-17T00:47:55.096Z,9.75
2023-04-17T00:48:55.067Z,9.75
2023-04-17T00:49:55.055Z,9.71
2023-04-17T00:50:55.042Z,9.73
2023-04-17T00:51:55.031Z,9.74
2023-04-17T00:52:55.024Z,9.74
2023-04-17T00:53:55.009Z,9.77
2023-04-17T00:54:54.997Z,9.73
2023-04-17T00:55:54.990Z,9.73
2023-04-17T00:56:54.975Z,9.71
2023-04-17T00:57:54.969Z,9.73
2023-04-17T00:58:54.981Z,9.70
2023-04-17T00:59:54.941Z,9.70
2023-04-17T01:00:54.968Z,9.68
2023-04-17T01:01:55.050Z,9.67
2023-04-17T01:02:55.013Z,9.65
2023-04-17T01:03:55.378Z,9.63
2023-04-17T01:04:54.888Z,9.62
2023-04-17T01:05:54.873Z,9.63
2023-04-17T01:06:54.868Z,9.59
2023-04-17T01:07:54.860Z,9.58
2023-04-17T01:08:54.840Z,9.56
2023-04-17T01:09:54.828Z,9.53
2023-04-17T01:10:54.823Z,9.52
2023-04-17T01:11:54.807Z,9.48
2023-04-17T01:12:54.794Z,9.50
2023-04-17T01:13:54.784Z,9.48
2023-04-17T01:14:54.815Z,9.48
2023-04-17T01:15:54.763Z,9.44
2023-04-17T01:16:54.776Z,9.45
2023-04-17T01:17:54.775Z,9.45
2023-04-17T01:18:54.728Z,9.44
2023-04-17T01:19:54.718Z,9.41
2023-04-17T01:20:54.700Z,9.44
2023-04-17T01:21:54.693Z,9.40
2023-04-17T01:22:54.684Z,9.40
2023-04-17T01:23:54.696Z,9.41
2023-04-17T01:24:54.689Z,9.41
2023-04-17T01:25:54.661Z,9.42
2023-04-17T01:26:54.637Z,9.42
2023-04-17T01:27:54.637Z,9.42
2023-04-17T01:28:54.631Z,9.41
2023-04-17T01:29:54.604Z,9.40
2023-04-17T01:30:54.653Z,9.37
2023-04-17T01:31:54.589Z,9.35
2023-04-17T01:32:54.602Z,9.35
2023-04-17T01:33:54.567Z,9.32
2023-04-17T01:34:54.561Z,9.30
2023-04-17T01:35:54.533Z,9.27
2023-04-17T01:36:54.522Z,9.27
2023-04-17T01:37:54.514Z,9.30
2023-04-17T01:38:54.513Z,9.31
2023-04-17T01:39:54.497Z,9.34
2023-04-17T01:40:54.488Z,9.30
2023-04-17T01:41:54.468Z,9.32
2023-04-17T01:42:54.461Z,9.31
2023-04-17T01:43:54.459Z,9.31
2023-04-17T01:44:54.435Z,9.31
2023-04-17T01:45:54.480Z,9.31
2023-04-17T01:46:54.439Z,9.30
2023-04-17T01:47:54.437Z,9.32
2023-04-17T01:48:54.392Z,9.32
2023-04-17T01:49:54.381Z,9.34
2023-04-17T01:50:54.375Z,9.34
2023-04-17T01:51:54.357Z,9.37
2023-04-17T01:52:54.358Z,9.35
2023-04-17T01:53:54.341Z,9.37
2023-04-17T01:54:54.326Z,9.40
2023-04-17T01:55:54.315Z,9.40
2023-04-17T01:56:54.303Z,9.38
2023-04-17T01:57:54.292Z,9.38
2023-04-17T01:58:54.277Z,9.37
2023-04-17T01:59:54.271Z,9.37
2023-04-17T02:00:54.256Z,9.35
2023-04-17T02:01:54.366Z,9.34
2023-04-17T02:02:54.454Z,9.35
2023-04-17T02:03:54.538Z,9.32
2023-04-17T02:04:54.238Z,9.30
2023-04-17T02:05:54.213Z,9.31
2023-04-17T02:06:54.193Z,9.27
2023-04-17T02:07:54.185Z,9.27
2023-04-17T02:08:54.174Z,9.24
2023-04-17T02:09:54.159Z,9.19
2023-04-17T02:10:54.143Z,9.22
2023-04-17T02:11:54.137Z,9.22
2023-04-17T02:12:54.121Z,9.20
2023-04-17T02:13:54.118Z,9.19
2023-04-17T02:14:54.108Z,9.17
2023-04-17T02:15:54.166Z,9.17
2023-04-17T02:16:54.078Z,9.16
2023-04-17T02:17:54.119Z,9.16
2023-04-17T02:18:54.078Z,9.17
2023-04-17T02:19:54.044Z,9.10
2023-04-17T02:20:54.030Z,9.10
2023-04-17T02:21:54.023Z,9.12
2023-04-17T02:22:54.009Z,9.12
2023-04-17T02:23:54.001Z,9.12
2023-04-17T02:24:53.986Z,9.04
2023-04-17T02:25:53.977Z,9.06
2023-04-17T02:26:53.963Z,9.03
2023-04-17T02:27:53.956Z,9.06
2023-04-17T02:28:53.941Z,9.06
2023-04-17T02:29:53.933Z,9.08
2023-04-17T02:30:54.027Z,9.10
2023-04-17T02:31:53.967Z,9.08
2023-04-17T02:32:53.995Z,9.06
2023-04-17T02:33:53.901Z,9.10
2023-04-17T02:34:53.897Z,9.12
2023-04-17T02:35:53.877Z,9.10
2023-04-17T02:36:53.854Z,9.08
2023-04-17T02:37:53.854Z,9.08
2023-04-17T02:38:53.832Z,9.04
2023-04-17T02:39:53.897Z,9.04
2023-04-17T02:40:53.884Z,9.06
2023-04-17T02:41:53.902Z,9.03
2023-04-17T02:42:53.857Z,9.01
2023-04-17T02:43:53.882Z,9.01
2023-04-17T02:44:53.893Z,9.00
2023-04-17T02:45:53.794Z,9.00
2023-04-17T02:46:53.781Z,8.97
2023-04-17T02:47:53.786Z,8.97
2023-04-17T02:48:53.721Z,9.00
2023-04-17T02:49:53.712Z,9.00
2023-04-17T02:50:53.724Z,9.03
2023-04-17T02:51:53.688Z,9.03
2023-04-17T02:52:53.677Z,9.01
2023-04-17T02:53:53.666Z,9.01
2023-04-17T02:54:53.656Z,9.03
2023-04-17T02:55:53.670Z,8.98
2023-04-17T02:56:53.636Z,9.04
2023-04-17T02:57:53.627Z,9.03
2023-04-17T02:58:53.610Z,9.03
2023-04-17T02:59:53.618Z,9.03
2023-04-17T03:00:53.601Z,9.03
2023-04-17T03:01:53.627Z,9.03
2023-04-17T03:02:53.737Z,9.01
2023-04-17T03:03:53.807Z,9.00
2023-04-17T03:04:53.543Z,9.00
2023-04-17T03:05:53.546Z,9.00
2023-04-17T03:06:53.545Z,9.01
2023-04-17T03:07:53.532Z,9.00
2023-04-17T03:08:53.533Z,8.98
2023-04-17T03:09:53.501Z,8.97
2023-04-17T03:10:53.473Z,8.93
2023-04-17T03:11:53.465Z,8.94
2023-04-17T03:12:53.462Z,8.93
2023-04-17T03:13:53.444Z,8.91
2023-04-17T03:14:53.434Z,8.91
2023-04-17T03:15:53.427Z,8.91
2023-04-17T03:16:53.522Z,8.91
2023-04-17T03:17:53.451Z,8.89
2023-04-17T03:18:53.390Z,8.88
2023-04-17T03:19:53.376Z,8.86
2023-04-17T03:20:53.364Z,8.86
2023-04-17T03:21:53.355Z,8.85
2023-04-17T03:22:53.364Z,8.88
2023-04-17T03:23:53.331Z,8.85
2023-04-17T03:24:53.325Z,8.83
2023-04-17T03:25:53.313Z,8.80
2023-04-17T03:26:53.298Z,8.80
2023-04-17T03:27:53.304Z,8.76
2023-04-17T03:28:53.276Z,8.75
2023-04-17T03:29:53.266Z,8.78
2023-04-17T03:30:53.254Z,8.73
2023-04-17T03:31:53.301Z,8.70
2023-04-17T03:32:53.338Z,8.70
2023-04-17T03:33:53.229Z,8.71
2023-04-17T03:34:53.219Z,8.73
2023-04-17T03:35:53.200Z,8.73
2023-04-17T03:36:53.204Z,8.68
2023-04-17T03:37:53.178Z,8.70
2023-04-17T03:38:53.187Z,8.67
2023-04-17T03:39:53.160Z,8.67
2023-04-17T03:40:53.154Z,8.67
2023-04-17T03:41:53.134Z,8.65
2023-04-17T03:42:53.120Z,8.65
2023-04-17T03:43:53.122Z,8.63
2023-04-17T03:44:53.111Z,8.64
2023-04-17T03:45:53.113Z,8.63
2023-04-17T03:46:53.080Z,8.60
2023-04-17T03:47:53.103Z,8.63
2023-04-17T03:48:53.057Z,8.58
2023-04-17T03:49:53.049Z,8.57
2023-04-17T03:50:53.034Z,8.58
2023-04-17T03:51:53.026Z,8.58
2023-04-17T03:52:53.021Z,8.61
2023-04-17T03:53:53.010Z,8.63
2023-04-17T03:54:53.123Z,8.61
2023-04-17T03:55:52.976Z,8.61
2023-04-17T03:56:52.965Z,8.60
2023-04-17T03:57:52.956Z,8.57
2023-04-17T03:58:52.946Z,8.54
2023-04-17T03:59:52.934Z,8.50
2023-04-17T04:00:52.939Z,8.46
2023-04-17T04:01:52.969Z,8.43
2023-04-17T04:02:53.005Z,8.42
2023-04-17T04:03:53.138Z,8.43
2023-04-17T04:04:52.975Z,8.40
2023-04-17T04:05:52.867Z,8.39
2023-04-17T04:06:52.850Z,8.37
2023-04-17T04:07:52.840Z,8.40
2023-04-17T04:08:52.834Z,8.43
2023-04-17T04:09:52.821Z,8.43
2023-04-17T04:10:52.889Z,8.45
2023-04-17T04:11:52.798Z,8.47
2023-04-17T04:12:52.787Z,8.47
2023-04-17T04:13:52.777Z,8.49
2023-04-17T04:14:52.771Z,8.50
2023-04-17T04:15:52.891Z,8.49
2023-04-17T04:16:52.749Z,8.52
2023-04-17T04:17:52.776Z,8.54
2023-04-17T04:18:52.717Z,8.54
2023-04-17T04:19:52.735Z,8.55
2023-04-17T04:20:52.697Z,8.58
2023-04-17T04:21:52.685Z,8.58
2023-04-17T04:22:52.678Z,8.57
2023-04-17T04:23:52.672Z,8.54
2023-04-17T04:24:52.663Z,8.50
2023-04-17T04:25:52.657Z,8.49
2023-04-17T04:26:52.671Z,8.49
2023-04-17T04:27:52.643Z,8.47
2023-04-17T04:28:52.632Z,8.49
2023-04-17T04:29:52.599Z,8.46
2023-04-17T04:30:52.586Z,8.46
2023-04-17T04:31:52.765Z,8.43
2023-04-17T04:32:52.683Z,8.45
2023-04-17T04:33:52.556Z,8.46
2023-04-17T04:34:52.542Z,8.47
2023-04-17T04:35:52.540Z,8.46
2023-04-17T04:36:52.518Z,8.47
2023-04-17T04:37:52.510Z,8.50
2023-04-17T04:38:52.503Z,8.52
2023-04-17T04:39:52.543Z,8.50
2023-04-17T04:40:52.744Z,8.54
2023-04-17T04:41:52.480Z,8.54
2023-04-17T04:42:52.479Z,8.55
2023-04-17T04:43:52.450Z,8.57
2023-04-17T04:44:52.433Z,8.58
2023-04-17T04:45:52.425Z,8.60
2023-04-17T04:46:52.460Z,8.61
2023-04-17T04:47:52.434Z,8.64
2023-04-17T04:48:52.393Z,8.64
2023-04-17T04:49:52.378Z,8.67
2023-04-17T04:50:52.368Z,8.67
2023-04-17T04:51:52.368Z,8.70
2023-04-17T04:52:52.347Z,8.73
2023-04-17T04:53:52.338Z,8.73
2023-04-17T04:54:52.327Z,8.75
2023-04-17T04:55:52.315Z,8.76
2023-04-17T04:56:52.386Z,8.76
2023-04-17T04:57:52.296Z,8.78
2023-04-17T04:58:52.302Z,8.78
2023-04-17T04:59:52.278Z,8.76
2023-04-17T05:00:52.301Z,8.79
2023-04-17T05:01:52.294Z,8.79
2023-04-17T05:02:52.370Z,8.78
2023-04-17T05:03:52.404Z,8.80
2023-04-17T05:04:52.257Z,8.78
2023-04-17T05:05:52.216Z,8.76
2023-04-17T05:06:52.208Z,8.79
2023-04-17T05:07:52.186Z,8.79
2023-04-17T05:08:52.172Z,8.83
2023-04-17T05:09:52.166Z,8.82
2023-04-17T05:10:52.152Z,8.80
2023-04-17T05:11:52.140Z,8.82
2023-04-17T05:12:52.128Z,8.83
2023-04-17T05:13:52.139Z,8.86
2023-04-17T05:14:52.141Z,8.85
2023-04-17T05:15:52.135Z,8.88
2023-04-17T05:16:52.130Z,8.89
2023-04-17T05:17:52.111Z,8.88
2023-04-17T05:18:52.067Z,8.93
2023-04-17T05:19:52.057Z,8.94
2023-04-17T05:20:52.046Z,8.96
2023-04-17T05:21:52.032Z,8.98
2023-04-17T05:22:52.017Z,9.00
2023-04-17T05:23:52.016Z,9.00
2023-04-17T05:24:52.002Z,9.03
2023-04-17T05:25:51.981Z,9.04
2023-04-17T05:26:51.979Z,9.08
2023-04-17T05:27:51.963Z,9.12
2023-04-17T05:28:51.979Z,9.16
2023-04-17T05:29:51.944Z,9.16
2023-04-17T05:30:51.958Z,9.17
2023-04-17T05:31:51.955Z,9.17
2023-04-17T05:32:52.048Z,9.23
2023-04-17T05:33:51.910Z,9.22
2023-04-17T05:34:51.888Z,9.23
2023-04-17T05:35:53.956Z,9.24
2023-04-17T05:36:51.865Z,9.27
2023-04-17T05:37:51.855Z,9.27
2023-04-17T05:38:51.860Z,9.32
2023-04-17T05:39:51.825Z,9.34
2023-04-17T05:40:51.821Z,9.35
2023-04-17T05:41:51.836Z,9.38
2023-04-17T05:42:51.800Z,9.34
2023-04-17T05:43:51.781Z,9.38
2023-04-17T05:44:51.785Z,9.41
2023-04-17T05:45:51.833Z,9.41
2023-04-17T05:46:51.773Z,9.45
2023-04-17T05:47:51.785Z,9.48
2023-04-17T05:48:51.735Z,9.50
2023-04-17T05:49:51.724Z,9.50
2023-04-17T05:50:51.704Z,9.55
2023-04-17T05:51:51.736Z,9.56
2023-04-17T05:52:51.682Z,9.55
2023-04-17T05:53:51.674Z,9.60
2023-04-17T05:54:51.662Z,9.62
2023-04-17T05:55:51.654Z,9.68
2023-04-17T05:56:51.640Z,9.68
2023-04-17T05:57:51.635Z,9.70
2023-04-17T05:58:51.617Z,9.73
2023-04-17T05:59:51.604Z,9.75
2023-04-17T06:00:51.623Z,9.78
2023-04-17T06:01:51.700Z,9.81
2023-04-17T06:02:51.916Z,9.83
2023-04-17T06:03:51.771Z,9.85
2023-04-17T06:04:51.676Z,9.88
2023-04-17T06:05:51.616Z,9.92
2023-04-17T06:06:51.533Z,9.93
2023-04-17T06:07:51.523Z,9.95
2023-04-17T06:08:51.510Z,9.98
2023-04-17T06:09:51.502Z,9.98
2023-04-17T06:10:51.488Z,10.01
2023-04-17T06:11:51.478Z,10.04
2023-04-17T06:12:51.464Z,10.09
2023-04-17T06:13:51.464Z,10.10
2023-04-17T06:14:51.449Z,10.10
2023-04-17T06:15:51.448Z,10.14
2023-04-17T06:16:51.469Z,10.17
2023-04-17T06:17:51.458Z,10.24
2023-04-17T06:18:51.438Z,10.24
2023-04-17T06:19:51.388Z,10.28
2023-04-17T06:20:51.374Z,10.34
2023-04-17T06:21:51.369Z,10.29
2023-04-17T06:22:51.355Z,10.34
2023-04-17T06:23:51.388Z,10.38
2023-04-17T06:24:51.338Z,10.42
2023-04-17T06:25:51.317Z,10.47
2023-04-17T06:26:51.310Z,10.52
2023-04-17T06:27:51.312Z,10.57
2023-04-17T06:28:51.285Z,10.60
2023-04-17T06:29:51.276Z,10.66
2023-04-17T06:30:51.307Z,10.73
2023-04-17T06:31:51.269Z,10.80
2023-04-17T06:32:51.278Z,10.81
2023-04-17T06:33:51.235Z,10.86
2023-04-17T06:34:59.128Z,10.90
2023-04-17T06:35:52.243Z,10.91
2023-04-17T06:36:51.203Z,10.94
2023-04-17T06:37:51.191Z,10.99
2023-04-17T06:38:51.183Z,11.06
2023-04-17T06:39:51.166Z,11.09
2023-04-17T06:40:52.728Z,11.13
2023-04-17T06:41:51.145Z,11.16
2023-04-17T06:42:51.136Z,11.21
2023-04-17T06:43:51.123Z,11.30
2023-04-17T06:44:51.126Z,11.31
2023-04-17T06:45:51.207Z,11.35
2023-04-17T06:46:51.181Z,11.35
2023-04-17T06:47:51.123Z,11.45
2023-04-17T06:48:51.070Z,11.53
2023-04-17T06:49:51.061Z,11.57
2023-04-17T06:50:51.067Z,11.67
2023-04-17T06:51:51.033Z,11.67
2023-04-17T06:52:51.021Z,11.75
2023-04-17T06:53:51.012Z,11.79
2023-04-17T06:54:50.997Z,11.84
2023-04-17T06:55:50.990Z,11.90
2023-04-17T06:56:50.994Z,11.79
2023-04-17T06:57:50.998Z,11.81
2023-04-17T06:58:50.959Z,11.85
2023-04-17T06:59:50.950Z,11.79
2023-04-17T07:00:50.951Z,11.81
2023-04-17T07:01:51.087Z,11.79
2023-04-17T07:02:50.979Z,11.88
2023-04-17T07:03:51.043Z,12.03
2023-04-17T07:04:50.952Z,12.05
2023-04-17T07:05:50.890Z,12.19
2023-04-17T07:06:50.891Z,12.26
2023-04-17T07:07:50.886Z,12.38
2023-04-17T07:08:51.297Z,12.30
2023-04-17T07:09:50.832Z,12.31
2023-04-17T07:10:50.835Z,12.36
2023-04-17T07:11:50.819Z,12.38
2023-04-17T07:12:50.799Z,12.46
2023-04-17T07:13:50.787Z,12.48
2023-04-17T07:14:50.778Z,12.56
2023-04-17T07:15:50.927Z,12.67
2023-04-17T07:16:50.892Z,12.74
2023-04-17T07:17:50.762Z,12.85
2023-04-17T07:18:50.748Z,12.84
2023-04-17T07:19:50.746Z,12.87
2023-04-17T07:20:50.724Z,13.01
2023-04-17T07:21:50.697Z,13.03
2023-04-17T07:22:50.711Z,13.21
2023-04-17T07:23:50.675Z,13.29
2023-04-17T07:24:50.666Z,13.35
2023-04-17T07:25:50.655Z,13.24
2023-04-17T07:26:50.644Z,13.24
2023-04-17T07:27:50.628Z,13.22
2023-04-17T07:28:50.628Z,13.21
2023-04-17T07:29:50.612Z,13.19
2023-04-17T07:30:50.609Z,13.39
2023-04-17T07:31:50.633Z,13.54
2023-04-17T07:32:50.624Z,13.65
2023-04-17T07:33:50.575Z,13.63
2023-04-17T07:34:50.556Z,13.62
2023-04-17T07:35:50.554Z,13.65
2023-04-17T07:36:50.540Z,13.79
2023-04-17T07:37:50.526Z,13.80
2023-04-17T07:38:50.536Z,13.88
2023-04-17T07:39:50.529Z,13.96
2023-04-17T07:40:50.496Z,13.94
2023-04-17T07:41:50.492Z,13.98
2023-04-17T07:42:50.467Z,13.88
2023-04-17T07:43:50.454Z,14.01
2023-04-17T07:44:50.441Z,14.01
2023-04-17T07:45:50.434Z,14.01
2023-04-17T07:46:50.510Z,14.11
2023-04-17T07:47:50.487Z,14.21
2023-04-17T07:48:50.437Z,14.34
2023-04-17T07:49:50.410Z,14.41
2023-04-17T07:50:50.395Z,14.45
2023-04-17T07:51:50.378Z,14.39
2023-04-17T07:52:50.387Z,14.35
2023-04-17T07:53:50.347Z,14.41
2023-04-17T07:54:50.391Z,14.78
2023-04-17T07:55:50.321Z,15.62
2023-04-17T07:56:50.420Z,16.54
2023-04-17T07:57:50.299Z,16.90
2023-04-17T07:58:50.290Z,17.46
2023-04-17T07:59:50.278Z,17.62
2023-04-17T08:00:50.269Z,17.99
2023-04-17T08:01:50.308Z,18.38
2023-04-17T08:02:50.384Z,18.14
2023-04-17T08:03:50.414Z,17.89
2023-04-17T08:04:50.264Z,17.95
2023-04-17T08:05:50.216Z,17.94
2023-04-17T08:06:50.202Z,17.89
2023-04-17T08:07:50.193Z,18.17
2023-04-17T08:08:50.178Z,18.26
2023-04-17T08:09:50.171Z,18.57
2023-04-17T08:10:50.222Z,18.68
2023-04-17T08:11:57.022Z,18.86
2023-04-17T08:12:50.140Z,18.78
2023-04-17T08:13:50.123Z,18.56
2023-04-17T08:14:50.147Z,18.19
2023-04-17T08:15:50.117Z,18.11
2023-04-17T08:16:50.127Z,18.07
2023-04-17T08:17:50.147Z,18.09
2023-04-17T08:18:50.074Z,18.17
2023-04-17T08:19:50.063Z,18.17
2023-04-17T08:20:50.053Z,18.19
2023-04-17T08:21:50.051Z,18.07
2023-04-17T08:22:50.033Z,18.32
2023-04-17T08:23:50.034Z,18.36
2023-04-17T08:24:50.012Z,18.69
2023-04-17T08:25:50.022Z,19.20
2023-04-17T08:26:50.077Z,19.25
2023-04-17T08:27:49.976Z,19.23
2023-04-17T08:28:49.974Z,19.12
2023-04-17T08:29:49.958Z,19.35
2023-04-17T08:30:49.979Z,19.16
2023-04-17T08:31:53.366Z,19.06
2023-04-17T08:32:49.992Z,18.94
2023-04-17T08:33:51.306Z,19.15
2023-04-17T08:34:49.902Z,19.27
2023-04-17T08:35:49.890Z,19.61
2023-04-17T08:36:49.887Z,19.67
2023-04-17T08:37:49.874Z,19.52
2023-04-17T08:38:49.877Z,19.12
2023-04-17T08:39:49.867Z,19.13
2023-04-17T08:40:49.846Z,19.31
2023-04-17T08:41:49.828Z,19.38
2023-04-17T08:42:49.844Z,19.47
2023-04-17T08:43:49.811Z,19.55
2023-04-17T08:44:49.803Z,19.60
2023-04-17T08:45:49.830Z,19.97
2023-04-17T08:46:49.791Z,19.82
2023-04-17T08:47:49.791Z,19.78
2023-04-17T08:48:51.683Z,19.76
2023-04-17T08:49:49.748Z,20.01
2023-04-17T08:50:49.774Z,20.19
2023-04-17T08:51:49.732Z,20.50
2023-04-17T08:52:49.852Z,20.69
2023-04-17T08:53:49.705Z,20.50
2023-04-17T08:54:51.346Z,20.75
2023-04-17T08:55:49.677Z,20.71
2023-04-17T08:56:49.672Z,20.60
2023-04-17T08:57:49.678Z,20.44
2023-04-17T08:58:49.678Z,20.23
2023-04-17T08:59:49.636Z,19.65
2023-04-17T09:00:49.630Z,19.39
2023-04-17T09:01:49.663Z,19.57
2023-04-17T09:02:49.716Z,20.00
2023-04-17T09:03:49.867Z,19.71
2023-04-17T09:04:49.735Z,19.75
2023-04-17T09:05:49.574Z,19.97
2023-04-17T09:06:49.565Z,20.26
2023-04-17T09:07:51.687Z,20.48
2023-04-17T09:08:49.545Z,20.82
2023-04-17T09:09:49.547Z,20.78
2023-04-17T09:10:49.552Z,20.60
2023-04-17T09:11:49.512Z,20.93
2023-04-17T09:12:49.504Z,20.73
2023-04-17T09:13:49.508Z,20.76
2023-04-17T09:14:49.510Z,21.03
2023-04-17T09:15:49.618Z,20.78
2023-04-17T09:16:49.459Z,20.26
2023-04-17T09:17:49.497Z,20.41
2023-04-17T09:18:49.521Z,20.73
2023-04-17T09:19:49.433Z,21.22
2023-04-17T09:20:49.426Z,21.49
2023-04-17T09:21:49.413Z,21.68
2023-04-17T09:22:49.395Z,21.98
2023-04-17T09:23:49.393Z,21.73
2023-04-17T09:24:49.408Z,21.33
2023-04-17T09:25:49.399Z,21.46
2023-04-17T09:26:49.356Z,21.53
2023-04-17T09:27:49.352Z,21.82
2023-04-17T09:28:49.346Z,21.86
2023-04-17T09:29:49.318Z,22.12
2023-04-17T09:30:49.336Z,22.29
2023-04-17T09:31:49.411Z,22.36
2023-04-17T09:32:49.428Z,22.59
2023-04-17T09:33:49.292Z,22.72
2023-04-17T09:34:49.280Z,22.94
2023-04-17T09:35:49.279Z,22.64
2023-04-17T09:36:49.269Z,22.35
2023-04-17T09:37:49.252Z,22.26
2023-04-17T09:38:49.230Z,22.20
2023-04-17T09:39:49.223Z,22.17
2023-04-17T09:40:49.214Z,22.29
2023-04-17T09:41:49.204Z,22.45
2023-04-17T09:42:49.189Z,22.57
2023-04-17T09:43:49.182Z,22.57
2023-04-17T09:44:49.176Z,22.66
2023-04-17T09:45:49.169Z,22.12
2023-04-17T09:46:49.422Z,22.06
2023-04-17T09:47:49.348Z,22.15
2023-04-17T09:48:49.253Z,22.20
2023-04-17T09:49:49.205Z,21.96
2023-04-17T09:50:49.313Z,21.82
2023-04-17T09:51:49.283Z,21.45
2023-04-17T09:52:49.136Z,21.51
2023-04-17T09:53:49.083Z,21.74
2023-04-17T09:54:49.069Z,22.29
2023-04-17T09:55:49.069Z,22.59
2023-04-17T09:56:49.044Z,22.75
2023-04-17T09:57:49.062Z,22.61
2023-04-17T09:58:49.061Z,22.33
2023-04-17T09:59:49.122Z,22.56
2023-04-17T10:00:49.078Z,22.20
2023-04-17T10:01:49.036Z,22.36
2023-04-17T10:02:49.166Z,22.46
2023-04-17T10:03:49.096Z,22.78
2023-04-17T10:04:48.956Z,22.75
2023-04-17T10:05:48.949Z,22.91
2023-04-17T10:06:48.931Z,22.38
2023-04-17T10:07:48.940Z,22.41
2023-04-17T10:08:48.915Z,22.78
2023-04-17T10:09:49.077Z,22.67
2023-04-17T10:10:48.933Z,22.70
2023-04-17T10:11:48.884Z,22.56
2023-04-17T10:12:48.877Z,22.44
2023-04-17T10:13:48.866Z,22.09
2023-04-17T10:14:48.865Z,22.19
2023-04-17T10:15:48.846Z,22.63
2023-04-17T10:16:48.902Z,23.04
2023-04-17T10:17:48.826Z,22.75
2023-04-17T10:18:48.830Z,22.89
2023-04-17T10:19:48.799Z,22.88
2023-04-17T10:20:48.804Z,22.29
2023-04-17T10:21:48.777Z,21.83
2023-04-17T10:22:48.804Z,21.46
2023-04-17T10:23:48.754Z,21.83
2023-04-17T10:24:48.748Z,22.36
2023-04-17T10:25:48.739Z,22.94
2023-04-17T10:26:48.724Z,22.89
2023-04-17T10:27:48.720Z,23.11
2023-04-17T10:28:48.709Z,23.16
2023-04-17T10:29:48.948Z,23.26
2023-04-17T10:30:48.682Z,23.03
2023-04-17T10:31:48.818Z,23.35
2023-04-17T10:32:48.701Z,22.89
2023-04-17T10:33:48.652Z,22.70
2023-04-17T10:34:48.666Z,23.03
2023-04-17T10:35:48.662Z,22.76
2023-04-17T10:36:48.621Z,22.70
2023-04-17T10:37:48.628Z,22.46
2023-04-17T10:38:48.599Z,22.06
2023-04-17T10:39:48.736Z,22.38
2023-04-17T10:40:48.589Z,22.54
2023-04-17T10:41:48.566Z,22.57
2023-04-17T10:42:48.553Z,22.63
2023-04-17T10:43:48.547Z,23.04
2023-04-17T10:44:48.540Z,23.15
2023-04-17T10:45:48.574Z,23.25
2023-04-17T10:46:48.514Z,23.44
2023-04-17T10:47:48.701Z,22.89
2023-04-17T10:48:48.535Z,23.12
2023-04-17T10:49:48.690Z,23.63
2023-04-17T10:50:48.497Z,23.52
2023-04-17T10:51:48.464Z,23.93
2023-04-17T10:52:48.452Z,24.00
2023-04-17T10:53:48.448Z,24.00
2023-04-17T10:54:48.429Z,23.77
2023-04-17T10:55:48.464Z,24.11
2023-04-17T10:56:48.685Z,24.02
2023-04-17T10:57:48.400Z,23.78
2023-04-17T10:58:48.450Z,23.52
2023-04-17T10:59:48.609Z,23.42
2023-04-17T11:00:48.371Z,22.35
2023-04-17T11:01:48.420Z,22.19
2023-04-17T11:02:48.460Z,22.01
2023-04-17T11:03:48.337Z,22.88
2023-04-17T11:04:48.384Z,23.67
2023-04-17T11:05:48.392Z,24.09
2023-04-17T11:06:48.402Z,24.61
2023-04-17T11:07:48.419Z,24.55
2023-04-17T11:08:48.305Z,24.79
2023-04-17T11:09:48.294Z,24.24
2023-04-17T11:10:48.634Z,24.16
2023-04-17T11:11:48.287Z,24.70
2023-04-17T11:12:48.274Z,25.19
2023-04-17T11:13:48.439Z,25.12
2023-04-17T11:14:48.255Z,24.51
2023-04-17T11:15:48.296Z,24.92
2023-04-17T11:16:48.541Z,24.77
2023-04-17T11:17:48.549Z,25.23
2023-04-17T11:18:48.475Z,25.48
2023-04-17T11:19:48.476Z,25.91
2023-04-17T11:20:48.191Z,25.85
2023-04-17T11:21:48.171Z,25.76
2023-04-17T11:22:48.179Z,25.51
2023-04-17T11:23:48.134Z,25.19
2023-04-17T11:24:48.140Z,25.23
2023-04-17T11:25:48.118Z,24.49
2023-04-17T11:26:48.101Z,24.18
2023-04-17T11:27:48.106Z,24.27
2023-04-17T11:28:48.084Z,23.64
2023-04-17T11:29:48.070Z,22.48
2023-04-17T11:30:48.097Z,21.61
2023-04-17T11:31:48.152Z,21.63
2023-04-17T11:32:48.084Z,22.29
2023-04-17T11:33:48.029Z,23.14
2023-04-17T11:34:48.022Z,23.37
2023-04-17T11:35:48.013Z,24.15
2023-04-17T11:36:47.998Z,24.53
2023-04-17T11:37:47.990Z,23.96
2023-04-17T11:38:48.001Z,24.18
2023-04-17T11:39:48.003Z,23.09
2023-04-17T11:40:47.998Z,22.08
2023-04-17T11:41:47.966Z,22.64
2023-04-17T11:42:47.934Z,23.34
2023-04-17T11:43:47.956Z,23.69
2023-04-17T11:44:47.914Z,23.15
2023-04-17T11:45:47.928Z,22.86
2023-04-17T11:46:48.074Z,23.21
2023-04-17T11:47:47.929Z,23.12
2023-04-17T11:48:47.872Z,23.74
2023-04-17T11:49:47.869Z,24.71
2023-04-17T11:50:47.880Z,25.09
2023-04-17T11:51:47.852Z,25.46
2023-04-17T11:52:47.895Z,25.34
2023-04-17T11:53:47.837Z,25.39
2023-04-17T11:54:47.832Z,25.24
2023-04-17T11:55:47.809Z,25.45
2023-04-17T11:56:47.853Z,25.51
2023-04-17T11:57:47.782Z,25.51
2023-04-17T11:58:47.772Z,24.68
2023-04-17T11:59:47.758Z,23.37
2023-04-17T12:00:47.772Z,22.15
2023-04-17T12:01:47.762Z,21.46
2023-04-17T12:02:48.080Z,21.43
2023-04-17T12:03:47.915Z,21.56
2023-04-17T12:04:47.813Z,22.86
2023-04-17T12:05:47.799Z,23.71
2023-04-17T12:06:47.689Z,24.63
2023-04-17T12:07:47.684Z,24.93
2023-04-17T12:08:47.671Z,25.36
2023-04-17T12:09:47.656Z,24.79
2023-04-17T12:10:47.670Z,25.35
2023-04-17T12:11:47.673Z,24.82
2023-04-17T12:12:47.623Z,24.89
2023-04-17T12:13:47.618Z,24.21
2023-04-17T12:14:47.612Z,23.29
2023-04-17T12:15:47.668Z,23.45
2023-04-17T12:16:47.766Z,22.72
2023-04-17T12:17:47.607Z,22.01
2023-04-17T12:18:47.582Z,21.58
2023-04-17T12:19:47.552Z,21.40
2023-04-17T12:20:47.552Z,21.21
2023-04-17T12:21:47.554Z,21.19
2023-04-17T12:22:47.527Z,21.30
2023-04-17T12:23:47.510Z,22.29
2023-04-17T12:24:47.498Z,22.15
2023-04-17T12:25:47.500Z,22.23
2023-04-17T12:26:47.503Z,22.15
2023-04-17T12:27:49.269Z,21.94
2023-04-17T12:28:47.453Z,21.73
2023-04-17T12:29:47.444Z,21.73
2023-04-17T12:30:47.474Z,21.75
2023-04-17T12:31:47.467Z,21.64
2023-04-17T12:32:47.433Z,21.56
2023-04-17T12:33:47.406Z,21.08
2023-04-17T12:34:47.421Z,20.64
2023-04-17T12:35:47.424Z,20.69
2023-04-17T12:36:47.369Z,20.78
2023-04-17T12:37:47.360Z,20.71
2023-04-17T12:38:47.359Z,20.78
2023-04-17T12:39:47.342Z,20.60
2023-04-17T12:40:47.325Z,20.50
2023-04-17T12:41:47.317Z,20.42
2023-04-17T12:42:49.531Z,20.22
2023-04-17T12:43:47.308Z,20.08
2023-04-17T12:44:47.307Z,19.70
2023-04-17T12:45:47.312Z,19.71
2023-04-17T12:46:47.269Z,19.70
2023-04-17T12:47:47.342Z,19.67
2023-04-17T12:48:47.243Z,19.72
2023-04-17T12:49:47.231Z,19.86
2023-04-17T12:50:47.218Z,19.94
2023-04-17T12:51:47.212Z,20.20
2023-04-17T12:52:47.203Z,21.58
2023-04-17T12:53:47.194Z,22.46
2023-04-17T12:54:47.178Z,22.91
2023-04-17T12:55:47.168Z,23.32
2023-04-17T12:56:47.159Z,23.67
2023-04-17T12:57:47.152Z,24.36
2023-04-17T12:58:47.158Z,24.66
2023-04-17T12:59:47.148Z,24.83
2023-04-17T13:00:47.142Z,23.77
2023-04-17T13:01:47.133Z,23.41
2023-04-17T13:02:47.240Z,22.63
2023-04-17T13:03:47.163Z,22.63
2023-04-17T13:04:47.091Z,23.54